Time;durP1;ratioP1;P1;durP2;ratioP2;P2;SDS_P1;SDS_P2;PMS_P1;PMS_P2;Temp;Humidity;BMP_temperature;BMP_pressure;BME280_temperature;BME280_humidity;BME280_pressure;Samples;Min_cycle;Max_cycle;Signal;HPM_P1;HPM_P2
2022/11/29 00:02:09;;;;;;;11.80;9.67;;;8.20;99.90;;;;;;5006554;28;20942;-71
2022/11/29 00:04:37;;;;;;;10.63;9.73;;;8.10;99.90;;;;;;5006511;28;21092;-71
2022/11/29 00:07:04;;;;;;;11.32;9.93;;;8.10;99.90;;;;;;5002277;28;20437;-71
2022/11/29 00:09:30;;;;;;;15.23;11.15;;;8.10;99.90;;;;;;5007151;28;20458;-71
2022/11/29 00:14:48;;;;;;;10.70;9.70;;;8.00;99.90;;;;;;4991728;28;20432;-71
2022/11/29 00:17:15;;;;;;;12.05;9.88;;;8.00;99.90;;;;;;5005207;28;20441;-71
2022/11/29 00:19:43;;;;;;;10.75;9.60;;;8.00;99.90;;;;;;5007922;28;20528;-71
2022/11/29 00:22:10;;;;;;;12.68;9.88;;;8.00;99.90;;;;;;5006908;28;20448;-70
2022/11/29 00:24:37;;;;;;;11.45;9.73;;;8.00;99.90;;;;;;4999015;28;20443;-70
2022/11/29 00:27:05;;;;;;;11.23;10.10;;;8.00;99.90;;;;;;5005909;28;20443;-71
2022/11/29 00:29:32;;;;;;;12.50;9.88;;;8.00;99.90;;;;;;5007678;28;20432;-71
2022/11/29 00:31:59;;;;;;;11.43;9.80;;;8.00;99.90;;;;;;5005696;28;20444;-71
2022/11/29 00:34:26;;;;;;;11.90;9.10;;;8.00;99.90;;;;;;5008099;28;20923;-73
2022/11/29 00:36:53;;;;;;;13.80;10.60;;;8.10;99.90;;;;;;5005467;28;20429;-73
2022/11/29 00:39:19;;;;;;;10.70;9.60;;;8.10;99.90;;;;;;5007619;28;20436;-73
2022/11/29 00:41:46;;;;;;;10.95;9.43;;;8.10;99.90;;;;;;5006924;28;20441;-72
2022/11/29 00:44:14;;;;;;;10.82;9.73;;;8.10;99.90;;;;;;5002062;28;21015;-72
2022/11/29 00:46:41;;;;;;;11.85;9.70;;;8.10;99.90;;;;;;5002067;28;20973;-72
2022/11/29 00:49:08;;;;;;;11.88;9.65;;;8.00;99.90;;;;;;5007594;28;20444;-72
2022/11/29 00:51:35;;;;;;;12.10;10.80;;;8.10;99.90;;;;;;5009440;28;20504;-73
2022/11/29 00:54:01;;;;;;;12.55;10.65;;;8.10;99.90;;;;;;5009280;28;20436;-72
2022/11/29 00:56:29;;;;;;;11.32;9.90;;;8.10;99.90;;;;;;5009196;28;20439;-73
2022/11/29 00:58:55;;;;;;;11.77;10.50;;;8.10;99.90;;;;;;5007698;28;20438;-73
2022/11/29 01:01:24;;;;;;;12.18;10.95;;;8.10;99.90;;;;;;5005281;28;21017;-73
2022/11/29 01:03:51;;;;;;;12.57;11.27;;;8.10;99.90;;;;;;5001538;28;20436;-73
2022/11/29 01:06:18;;;;;;;14.13;11.60;;;8.10;99.90;;;;;;4999331;28;20446;-73
2022/11/29 01:08:46;;;;;;;12.68;11.38;;;8.10;99.90;;;;;;5006817;28;21107;-73
2022/11/29 01:11:15;;;;;;;13.10;10.90;;;8.10;99.90;;;;;;5005636;28;20455;-73
2022/11/29 01:13:42;;;;;;;11.88;10.60;;;8.10;99.90;;;;;;5005858;28;20436;-73
2022/11/29 01:16:10;;;;;;;13.20;10.63;;;8.10;99.90;;;;;;5006910;28;21103;-73
2022/11/29 01:18:38;;;;;;;12.32;11.05;;;8.10;99.90;;;;;;5004060;28;20436;-72
2022/11/29 01:21:08;;;;;;;11.88;10.60;;;8.10;99.90;;;;;;5008076;28;20448;-72
2022/11/29 01:23:35;;;;;;;12.65;11.35;;;8.10;99.90;;;;;;5003361;28;20438;-72
2022/11/29 01:26:05;;;;;;;12.50;11.20;;;8.10;99.90;;;;;;5006512;28;20443;-72
2022/11/29 01:28:32;;;;;;;13.65;11.40;;;8.10;99.90;;;;;;5006314;28;20440;-72
2022/11/29 01:30:59;;;;;;;12.85;11.40;;;8.10;99.90;;;;;;5007030;28;20436;-73
2022/11/29 01:33:25;;;;;;;12.93;11.73;;;8.10;99.90;;;;;;5004697;28;20860;-73
2022/11/29 01:35:54;;;;;;;13.93;12.27;;;8.10;99.90;;;;;;5004191;28;20467;-73
2022/11/29 01:38:22;;;;;;;13.77;11.30;;;8.10;99.90;;;;;;5006828;28;20452;-71
2022/11/29 01:40:58;;;;;;;12.98;11.60;;;8.10;99.90;;;;;;5006902;28;20432;-71
2022/11/29 01:43:25;;;;;;;15.82;12.38;;;8.10;99.90;;;;;;4998667;28;20440;-71
2022/11/29 01:45:52;;;;;;;14.57;11.80;;;8.20;99.90;;;;;;4998678;28;20448;-71
2022/11/29 01:48:22;;;;;;;13.87;12.10;;;8.20;99.90;;;;;;5028058;22;20457;-78
2022/11/29 01:50:48;;;;;;;13.50;11.93;;;8.20;99.90;;;;;;5007912;28;20427;-78
2022/11/29 01:53:17;;;;;;;14.20;12.80;;;8.20;99.90;;;;;;5025067;28;20422;-78
2022/11/29 01:55:50;;;;;;;13.97;11.73;;;8.20;99.90;;;;;;5025572;28;20520;-78
2022/11/29 01:58:17;;;;;;;14.70;13.20;;;8.20;99.90;;;;;;5007700;28;20444;-78
2022/11/29 02:00:44;;;;;;;13.80;12.20;;;8.20;99.90;;;;;;4998789;28;20437;-78
2022/11/29 02:03:13;;;;;;;14.93;12.38;;;8.20;99.90;;;;;;4995957;28;20941;-78
2022/11/29 02:05:44;;;;;;;12.95;11.65;;;8.20;99.90;;;;;;4997501;28;20447;-78
2022/11/29 02:08:14;;;;;;;14.35;12.30;;;8.20;99.90;;;;;;4994742;28;20822;-78
2022/11/29 02:10:56;;;;;;;15.55;12.20;;;8.30;99.90;;;;;;4992065;28;20939;-78
2022/11/29 02:13:28;;;;;;;13.98;11.82;;;8.20;99.90;;;;;;4990200;28;20446;-80
2022/11/29 02:15:59;;;;;;;13.35;11.95;;;8.20;99.90;;;;;;5007473;28;20440;-79
2022/11/29 02:18:39;;;;;;;17.40;12.63;;;8.30;99.90;;;;;;5007485;28;20426;-78
2022/11/29 02:21:26;;;;;;;13.88;12.30;;;8.30;99.90;;;;;;5007947;28;20432;-79
2022/11/29 02:24:30;;;;;;;15.57;13.00;;;8.20;99.90;;;;;;4999803;28;20436;-79
2022/11/29 02:27:20;;;;;;;15.90;13.35;;;8.20;99.90;;;;;;5006335;28;21062;-79
2022/11/29 02:30:06;;;;;;;15.70;13.32;;;8.20;99.90;;;;;;4998726;28;20434;-79
2022/11/29 02:33:06;;;;;;;14.73;12.57;;;8.20;99.90;;;;;;5005531;28;21096;-78
2022/11/29 02:36:00;;;;;;;16.30;13.05;;;8.20;99.90;;;;;;4999517;28;20437;-78
2022/11/29 02:38:44;;;;;;;17.73;14.10;;;8.20;99.90;;;;;;4999467;28;20955;-79
2022/11/29 02:41:35;;;;;;;17.85;13.95;;;8.20;99.90;;;;;;5000580;28;20447;-78
2022/11/29 02:44:19;;;;;;;15.33;13.53;;;8.20;99.90;;;;;;4987195;28;20431;-78
2022/11/29 02:47:02;;;;;;;19.40;13.82;;;8.20;99.90;;;;;;4990283;28;20438;-78
2022/11/29 02:49:49;;;;;;;17.23;14.43;;;8.20;99.90;;;;;;5003000;28;20443;-78
2022/11/29 02:52:19;;;;;;;16.52;14.00;;;8.20;99.90;;;;;;4993284;28;20442;-79
2022/11/29 02:54:52;;;;;;;19.63;15.27;;;8.20;99.90;;;;;;4993874;28;20734;-79
2022/11/29 02:57:25;;;;;;;18.25;14.55;;;8.20;99.90;;;;;;4994535;28;20432;-79
2022/11/29 03:00:00;;;;;;;19.47;13.90;;;8.20;99.90;;;;;;4995153;28;20518;-79
2022/11/29 03:02:34;;;;;;;17.05;14.20;;;8.20;99.90;;;;;;4990571;28;20840;-78
2022/11/29 03:05:13;;;;;;;18.90;15.27;;;8.20;99.90;;;;;;4991560;28;20776;-78
2022/11/29 03:07:49;;;;;;;16.80;14.45;;;8.30;99.90;;;;;;4991755;28;20445;-78
2022/11/29 03:10:26;;;;;;;20.10;14.07;;;8.30;99.90;;;;;;4998374;28;21177;-78
2022/11/29 03:12:54;;;;;;;18.85;14.63;;;8.30;99.90;;;;;;4996431;28;20434;-78
2022/11/29 03:15:28;;;;;;;18.25;15.65;;;8.30;99.90;;;;;;4991056;28;20433;-78
2022/11/29 03:18:06;;;;;;;24.65;16.27;;;8.30;99.90;;;;;;4997569;28;20868;-78
2022/11/29 03:20:55;;;;;;;19.23;14.88;;;8.40;99.90;;;;;;4997512;28;20434;-78
2022/11/29 03:23:25;;;;;;;20.85;15.23;;;8.40;99.90;;;;;;4998218;28;20457;-78
2022/11/29 03:25:57;;;;;;;18.38;14.70;;;8.30;99.90;;;;;;4998742;28;20457;-79
2022/11/29 03:28:29;;;;;;;18.50;15.73;;;8.40;99.90;;;;;;5002699;28;20447;-78
2022/11/29 03:31:02;;;;;;;18.17;15.95;;;8.40;99.90;;;;;;4993504;28;20443;-78
2022/11/29 03:33:38;;;;;;;21.85;15.52;;;8.40;99.90;;;;;;4993062;28;20470;-79
2022/11/29 03:36:14;;;;;;;21.42;16.10;;;8.40;99.90;;;;;;4994271;28;20447;-78
2022/11/29 03:38:43;;;;;;;21.90;16.05;;;8.40;99.90;;;;;;4994242;28;20444;-78
2022/11/29 03:41:19;;;;;;;22.98;17.48;;;8.40;99.90;;;;;;4989179;28;20445;-79
2022/11/29 03:43:51;;;;;;;21.08;16.33;;;8.40;99.90;;;;;;4998791;28;20826;-78
2022/11/29 03:46:25;;;;;;;23.90;17.65;;;8.40;99.90;;;;;;4994307;28;20986;-78
2022/11/29 03:48:57;;;;;;;22.20;17.70;;;8.40;99.90;;;;;;4999016;28;20438;-78
2022/11/29 03:51:31;;;;;;;21.67;17.52;;;8.40;99.90;;;;;;4999744;28;20436;-78
2022/11/29 03:54:02;;;;;;;23.60;18.92;;;8.40;99.90;;;;;;5002101;28;20899;-78
2022/11/29 03:56:32;;;;;;;23.33;18.52;;;8.40;99.90;;;;;;5011542;28;20440;-78
2022/11/29 03:59:12;;;;;;;24.25;19.10;;;8.40;99.90;;;;;;4999028;28;20433;-78
2022/11/29 04:02:10;;;;;;;26.60;20.05;;;8.40;99.90;;;;;;4993155;28;20448;-78
2022/11/29 04:05:02;;;;;;;27.42;20.83;;;8.40;99.90;;;;;;4995754;28;20528;-78
2022/11/29 04:07:59;;;;;;;26.73;21.35;;;8.40;99.90;;;;;;5013649;28;20441;-79
2022/11/29 04:10:49;;;;;;;29.90;21.83;;;8.40;99.90;;;;;;5013303;28;20434;-79
2022/11/29 04:13:46;;;;;;;30.92;22.85;;;8.50;99.90;;;;;;4980745;28;20429;-78
2022/11/29 04:16:41;;;;;;;31.48;22.50;;;8.50;99.90;;;;;;4969078;28;20916;-78
2022/11/29 04:19:37;;;;;;;27.63;22.50;;;8.50;99.90;;;;;;4998256;28;20442;-79
2022/11/29 04:22:39;;;;;;;35.28;24.35;;;8.50;99.90;;;;;;4996172;28;20456;-79
2022/11/29 04:25:24;;;;;;;36.60;24.77;;;8.50;99.90;;;;;;4990134;28;20433;-78
2022/11/29 04:28:08;;;;;;;33.40;24.83;;;8.40;99.90;;;;;;4994064;28;20922;-79
2022/11/29 04:30:47;;;;;;;41.38;26.85;;;8.50;99.90;;;;;;4996709;28;20448;-79
2022/11/29 04:33:57;;;;;;;37.50;26.38;;;8.50;99.90;;;;;;4993629;28;20436;-78
2022/11/29 04:37:00;;;;;;;36.97;26.98;;;8.50;99.90;;;;;;4994788;28;20434;-78
2022/11/29 04:39:43;;;;;;;41.58;26.02;;;8.50;99.90;;;;;;5006521;28;20881;-78
2022/11/29 04:42:28;;;;;;;39.15;26.67;;;8.50;99.90;;;;;;4991056;28;20426;-79
2022/11/29 04:45:15;;;;;;;41.10;27.35;;;8.40;99.90;;;;;;4993826;28;20539;-79
2022/11/29 04:47:59;;;;;;;44.03;27.70;;;8.50;99.90;;;;;;4993420;28;20500;-78
2022/11/29 04:50:40;;;;;;;41.80;27.80;;;8.50;99.90;;;;;;5001314;28;20449;-78
2022/11/29 04:53:28;;;;;;;48.25;29.75;;;8.40;99.90;;;;;;4988026;28;20572;-78
2022/11/29 04:56:04;;;;;;;47.78;29.70;;;8.40;99.90;;;;;;4995728;28;20952;-78
2022/11/29 04:58:39;;;;;;;49.10;31.55;;;8.40;99.90;;;;;;4999633;28;20467;-78
2022/11/29 05:01:17;;;;;;;50.00;30.33;;;8.40;99.90;;;;;;5001130;28;20439;-78
2022/11/29 05:03:51;;;;;;;49.15;30.92;;;8.40;99.90;;;;;;5008885;28;20412;-79
2022/11/29 05:06:25;;;;;;;50.53;31.83;;;8.40;99.90;;;;;;5011450;28;20530;-79
2022/11/29 05:09:00;;;;;;;51.40;30.85;;;8.50;99.90;;;;;;5014648;28;20437;-80
2022/11/29 05:11:37;;;;;;;50.25;30.88;;;8.40;99.90;;;;;;5004265;28;20516;-78
2022/11/29 05:14:15;;;;;;;55.65;32.30;;;8.50;99.90;;;;;;4991348;28;20434;-79
2022/11/29 05:16:47;;;;;;;56.67;34.17;;;8.50;99.90;;;;;;4999752;28;20588;-78
2022/11/29 05:19:46;;;;;;;55.63;33.83;;;8.50;99.90;;;;;;5006654;28;20471;-78
2022/11/29 05:22:23;;;;;;;57.95;32.72;;;8.40;99.90;;;;;;5004070;28;20514;-79
2022/11/29 05:24:56;;;;;;;59.00;34.80;;;8.40;99.90;;;;;;4989988;28;20450;-79
2022/11/29 05:27:37;;;;;;;63.38;34.58;;;8.40;99.90;;;;;;5002845;28;20442;-79
2022/11/29 05:30:11;;;;;;;63.58;34.72;;;8.40;99.90;;;;;;5021999;28;20465;-79
2022/11/29 05:32:45;;;;;;;65.47;35.92;;;8.30;99.90;;;;;;5022014;28;20424;-80
2022/11/29 05:35:40;;;;;;;72.87;38.73;;;8.30;99.90;;;;;;5020865;28;20527;-80
2022/11/29 05:38:20;;;;;;;67.10;35.72;;;8.30;99.90;;;;;;5008977;28;20422;-80
2022/11/29 05:41:01;;;;;;;72.85;37.50;;;8.30;99.90;;;;;;5009277;28;20438;-81
2022/11/29 05:43:41;;;;;;;67.28;37.90;;;8.30;99.90;;;;;;4993511;28;20458;-80
2022/11/29 05:46:17;;;;;;;67.50;35.70;;;8.30;99.90;;;;;;5007392;28;20432;-81
2022/11/29 05:48:50;;;;;;;68.53;36.07;;;8.30;99.90;;;;;;4998968;28;20430;-79
2022/11/29 05:51:22;;;;;;;62.43;34.67;;;8.30;99.90;;;;;;4998643;28;20427;-80
2022/11/29 05:54:00;;;;;;;73.20;36.28;;;8.20;99.90;;;;;;5003789;28;20412;-80
2022/11/29 05:56:38;;;;;;;67.80;35.47;;;8.20;99.90;;;;;;4995608;28;20508;-79
2022/11/29 05:59:11;;;;;;;80.32;36.65;;;8.20;99.90;;;;;;4993774;28;20444;-81
2022/11/29 06:01:48;;;;;;;73.37;37.70;;;8.20;99.90;;;;;;4999154;28;20504;-78
2022/11/29 06:04:21;;;;;;;71.63;35.22;;;8.20;99.90;;;;;;5002380;28;20734;-79
2022/11/29 06:06:53;;;;;;;72.67;34.90;;;8.20;99.90;;;;;;5000773;28;20815;-79
2022/11/29 06:09:27;;;;;;;76.05;35.58;;;8.20;99.90;;;;;;5000579;28;20433;-78
2022/11/29 06:12:01;;;;;;;73.53;35.00;;;8.20;99.90;;;;;;5012840;28;20460;-77
2022/11/29 06:14:48;;;;;;;89.78;40.38;;;8.20;99.90;;;;;;4992320;28;20438;-76
2022/11/29 06:17:47;;;;;;;97.10;40.35;;;8.20;99.90;;;;;;5000610;28;20579;-75
2022/11/29 06:20:52;;;;;;;102.10;42.92;;;8.20;99.90;;;;;;5001873;28;20467;-77
2022/11/29 06:23:43;;;;;;;116.68;45.67;;;8.20;99.90;;;;;;4961119;28;20457;-77
2022/11/29 06:26:25;;;;;;;111.88;47.00;;;8.20;99.90;;;;;;5003226;28;20520;-77
2022/11/29 06:29:02;;;;;;;122.70;48.63;;;8.20;99.90;;;;;;5007305;28;20436;-77
2022/11/29 06:31:36;;;;;;;124.68;47.83;;;8.20;99.90;;;;;;5009355;28;20529;-77
2022/11/29 06:34:12;;;;;;;127.13;49.37;;;8.20;99.90;;;;;;5003669;28;20483;-78
2022/11/29 06:36:44;;;;;;;117.75;47.40;;;8.20;99.90;;;;;;5004580;28;20463;-77
2022/11/29 06:39:12;;;;;;;138.57;51.23;;;8.20;99.90;;;;;;5002654;28;20432;-66
2022/11/29 06:41:38;;;;;;;137.63;50.70;;;8.20;99.90;;;;;;4993999;28;20424;-67
2022/11/29 06:44:06;;;;;;;129.40;51.83;;;8.20;99.90;;;;;;4993544;28;20875;-67
2022/11/29 06:46:45;;;;;;;144.77;53.20;;;8.20;99.90;;;;;;5008070;28;20433;-73
2022/11/29 06:49:21;;;;;;;123.00;49.72;;;8.30;99.90;;;;;;4996773;28;20440;-73
2022/11/29 06:52:02;;;;;;;128.77;50.25;;;8.30;99.90;;;;;;4999591;28;20439;-76
2022/11/29 06:54:41;;;;;;;116.90;50.03;;;8.30;99.90;;;;;;4994385;28;20456;-75
2022/11/29 06:57:16;;;;;;;124.80;48.50;;;8.30;99.90;;;;;;5001689;28;20716;-74
2022/11/29 06:59:52;;;;;;;119.32;47.13;;;8.30;99.90;;;;;;5004434;28;21142;-77
2022/11/29 07:02:43;;;;;;;120.68;49.47;;;8.30;99.90;;;;;;5007385;28;20438;-75
2022/11/29 07:05:23;;;;;;;121.50;48.45;;;8.20;99.90;;;;;;5015013;28;20901;-75
2022/11/29 07:07:51;;;;;;;110.15;47.75;;;8.20;99.90;;;;;;5005481;28;20459;-74
2022/11/29 07:10:20;;;;;;;124.80;46.70;;;8.20;99.90;;;;;;5015301;28;20462;-75
2022/11/29 07:12:50;;;;;;;119.47;48.30;;;8.20;99.90;;;;;;5005495;28;20449;-77
2022/11/29 07:15:19;;;;;;;112.93;45.13;;;8.20;99.90;;;;;;5003876;28;20425;-74
2022/11/29 07:17:59;;;;;;;111.88;45.72;;;8.30;99.90;;;;;;5006395;28;20799;-74
2022/11/29 07:20:36;;;;;;;112.78;44.83;;;8.30;99.90;;;;;;4997597;28;20501;-74
2022/11/29 07:23:13;;;;;;;122.95;46.63;;;8.30;99.90;;;;;;4994051;28;20452;-74
2022/11/29 07:25:51;;;;;;;105.38;44.92;;;8.30;99.90;;;;;;4989564;28;20424;-74
2022/11/29 07:28:30;;;;;;;115.78;46.22;;;8.20;99.90;;;;;;5000433;28;20440;-74
2022/11/29 07:31:03;;;;;;;105.50;43.78;;;8.20;99.90;;;;;;5006023;28;20420;-74
2022/11/29 07:33:39;;;;;;;115.57;43.03;;;8.20;99.90;;;;;;5006291;28;20431;-74
2022/11/29 07:36:14;;;;;;;106.70;41.95;;;8.20;99.90;;;;;;4990793;28;20437;-73
2022/11/29 07:38:56;;;;;;;104.57;41.50;;;8.20;99.90;;;;;;4995743;28;20438;-76
2022/11/29 07:41:31;;;;;;;103.28;41.78;;;8.20;99.90;;;;;;5005832;28;20421;-73
2022/11/29 07:44:08;;;;;;;100.70;42.47;;;8.20;99.90;;;;;;5007497;28;20448;-74
2022/11/29 07:46:35;;;;;;;109.22;42.22;;;8.20;99.90;;;;;;5001961;28;20451;-74
2022/11/29 07:49:01;;;;;;;112.53;44.33;;;8.20;99.90;;;;;;4993704;28;20511;-74
2022/11/29 07:51:30;;;;;;;107.05;44.00;;;8.20;99.90;;;;;;4992722;28;20758;-73
2022/11/29 07:53:57;;;;;;;114.15;45.67;;;8.20;99.90;;;;;;5009949;28;20481;-76
2022/11/29 07:56:24;;;;;;;111.15;45.50;;;8.20;99.90;;;;;;5006060;28;21062;-74
2022/11/29 07:58:51;;;;;;;103.37;44.40;;;8.20;99.90;;;;;;5009549;28;20887;-73
2022/11/29 08:01:18;;;;;;;111.10;45.80;;;8.20;99.90;;;;;;5012523;28;20722;-74
2022/11/29 08:03:45;;;;;;;105.88;43.83;;;8.20;99.90;;;;;;5007556;28;20454;-73
2022/11/29 08:06:11;;;;;;;113.88;43.88;;;8.20;99.90;;;;;;4997687;28;20429;-74
2022/11/29 08:08:39;;;;;;;107.50;43.33;;;8.20;99.90;;;;;;5003327;28;20514;-77
2022/11/29 08:11:10;;;;;;;106.00;42.13;;;8.30;99.90;;;;;;4994320;28;22060;-75
2022/11/29 08:13:37;;;;;;;111.38;45.35;;;8.30;99.90;;;;;;5001081;28;20434;-74
2022/11/29 08:16:04;;;;;;;107.70;42.50;;;8.20;99.90;;;;;;4995447;28;20444;-74
2022/11/29 08:18:30;;;;;;;97.63;41.65;;;8.30;99.90;;;;;;4994998;28;20438;-76
2022/11/29 08:20:57;;;;;;;106.80;42.20;;;8.30;99.90;;;;;;4990120;28;20974;-74
2022/11/29 08:23:24;;;;;;;103.47;41.47;;;8.30;99.90;;;;;;4992642;28;20428;-74
2022/11/29 08:25:59;;;;;;;104.65;39.53;;;8.30;99.90;;;;;;5019057;28;20423;-75
2022/11/29 08:28:25;;;;;;;97.30;40.50;;;8.30;99.90;;;;;;5004250;28;20588;-74
2022/11/29 08:31:00;;;;;;;90.40;38.30;;;8.30;99.90;;;;;;5001975;28;20433;-74
2022/11/29 08:33:27;;;;;;;76.57;35.87;;;8.30;99.90;;;;;;5007167;28;20885;-76
2022/11/29 08:35:53;;;;;;;79.38;35.80;;;8.30;99.90;;;;;;5016240;28;20442;-75
2022/11/29 08:38:20;;;;;;;87.88;37.88;;;8.30;99.90;;;;;;5013875;28;20449;-75
2022/11/29 08:40:47;;;;;;;75.35;34.42;;;8.40;99.90;;;;;;4998919;28;20523;-75
2022/11/29 08:43:15;;;;;;;78.15;33.78;;;8.40;99.90;;;;;;4998206;28;20432;-75
2022/11/29 08:45:42;;;;;;;81.07;33.72;;;8.40;99.90;;;;;;4993572;28;20437;-75
2022/11/29 08:48:08;;;;;;;75.07;35.63;;;8.40;99.90;;;;;;5000699;28;20448;-76
2022/11/29 08:50:35;;;;;;;69.75;32.40;;;8.40;99.90;;;;;;4999037;28;20459;-75
2022/11/29 08:55:46;;;;;;;72.50;32.75;;;8.40;99.90;;;;;;5016629;28;20440;-74
2022/11/29 08:58:15;;;;;;;72.07;33.97;;;8.40;99.90;;;;;;4996804;28;20442;-75
2022/11/29 09:00:45;;;;;;;72.55;33.60;;;8.40;99.90;;;;;;4995334;28;20418;-74
2022/11/29 09:05:58;;;;;;;70.07;34.38;;;8.40;99.90;;;;;;5000024;28;20564;-75
2022/11/29 09:08:24;;;;;;;67.80;34.10;;;8.50;99.90;;;;;;5004179;28;20432;-76
2022/11/29 09:10:52;;;;;;;67.28;34.17;;;8.40;99.90;;;;;;5009573;28;20524;-75
2022/11/29 09:13:20;;;;;;;64.95;35.63;;;8.40;99.90;;;;;;5007985;28;20453;-75
2022/11/29 09:15:47;;;;;;;63.70;36.03;;;8.40;99.90;;;;;;5014513;28;20457;-77
2022/11/29 09:18:14;;;;;;;65.45;35.80;;;8.40;99.90;;;;;;5014272;28;20494;-76
2022/11/29 09:20:43;;;;;;;62.70;33.75;;;8.50;99.90;;;;;;5018921;28;20415;-75
2022/11/29 09:23:10;;;;;;;62.40;32.63;;;8.50;99.90;;;;;;4993882;28;20542;-76
2022/11/29 09:25:37;;;;;;;62.45;33.00;;;8.50;99.90;;;;;;5001191;28;20941;-75
2022/11/29 09:28:04;;;;;;;65.53;35.07;;;8.50;99.90;;;;;;4997110;28;20441;-75
2022/11/29 09:30:35;;;;;;;65.88;34.83;;;8.50;99.90;;;;;;5003231;28;20506;-75
2022/11/29 09:33:03;;;;;;;65.65;35.45;;;8.60;99.90;;;;;;5010098;28;20525;-75
2022/11/29 09:35:31;;;;;;;73.32;35.15;;;8.60;99.90;;;;;;5003667;28;20426;-76
2022/11/29 09:37:57;;;;;;;63.15;36.13;;;8.60;99.90;;;;;;4992647;28;20492;-74
2022/11/29 09:40:31;;;;;;;64.72;36.10;;;8.70;99.90;;;;;;4990300;28;20420;-75
2022/11/29 09:43:04;;;;;;;64.90;33.73;;;8.70;99.90;;;;;;5000049;28;20600;-75
2022/11/29 09:45:38;;;;;;;59.10;33.22;;;8.70;99.90;;;;;;4993254;28;20426;-75
2022/11/29 09:48:32;;;;;;;59.42;33.35;;;8.80;99.90;;;;;;5012948;28;20436;-75
2022/11/29 09:51:11;;;;;;;60.00;34.28;;;8.80;99.90;;;;;;5011952;28;20452;-74
2022/11/29 09:53:56;;;;;;;61.92;37.03;;;8.80;99.90;;;;;;5000491;28;20423;-74
2022/11/29 09:56:29;;;;;;;61.22;36.20;;;8.90;99.90;;;;;;4993275;28;20888;-74
2022/11/29 09:59:00;;;;;;;65.97;35.47;;;8.90;99.90;;;;;;5004891;28;20513;-75
2022/11/29 10:01:33;;;;;;;57.95;33.92;;;8.90;99.90;;;;;;5011848;28;20503;-74
2022/11/29 10:04:03;;;;;;;51.92;31.60;;;9.00;99.90;;;;;;5010947;28;20850;-75
2022/11/29 10:06:37;;;;;;;56.15;32.33;;;9.00;99.90;;;;;;4997802;28;20412;-75
2022/11/29 10:09:08;;;;;;;54.60;33.40;;;9.10;99.90;;;;;;4992856;28;20529;-75
2022/11/29 10:11:39;;;;;;;58.10;33.40;;;9.00;99.90;;;;;;4994860;28;20931;-76
2022/11/29 10:14:14;;;;;;;61.88;34.15;;;9.00;99.90;;;;;;4997663;28;20875;-75
2022/11/29 10:16:47;;;;;;;62.55;35.30;;;9.00;99.90;;;;;;4998866;28;20798;-75
2022/11/29 10:19:21;;;;;;;55.20;32.92;;;9.00;99.90;;;;;;4994201;28;20504;-75
2022/11/29 10:21:57;;;;;;;56.77;32.53;;;9.10;99.90;;;;;;4990098;28;20488;-75
2022/11/29 10:24:28;;;;;;;57.40;33.50;;;9.10;99.90;;;;;;4996535;28;20516;-75
2022/11/29 10:26:55;;;;;;;57.45;33.85;;;9.10;99.90;;;;;;4997401;28;20545;-75
2022/11/29 10:29:22;;;;;;;58.47;34.03;;;9.00;99.90;;;;;;4999464;28;20941;-76
2022/11/29 10:31:53;;;;;;;58.55;33.10;;;9.00;99.90;;;;;;5003298;28;20606;-76
2022/11/29 10:34:23;;;;;;;63.53;36.10;;;9.00;99.90;;;;;;4995013;28;20510;-76
2022/11/29 10:36:53;;;;;;;53.57;32.27;;;9.00;99.90;;;;;;4994522;28;20536;-76
2022/11/29 10:39:24;;;;;;;51.10;30.80;;;9.00;99.90;;;;;;5007252;28;20879;-75
2022/11/29 10:41:55;;;;;;;58.65;33.08;;;9.10;99.90;;;;;;5002635;28;20434;-74
2022/11/29 10:44:23;;;;;;;53.20;32.17;;;9.10;99.90;;;;;;5001833;28;20437;-75
2022/11/29 10:46:52;;;;;;;52.80;30.15;;;9.10;99.90;;;;;;5002266;28;20440;-75
2022/11/29 10:49:22;;;;;;;44.92;27.52;;;9.10;99.90;;;;;;4992471;28;20416;-74
2022/11/29 10:51:48;;;;;;;39.08;26.08;;;9.00;99.90;;;;;;4991775;28;20906;-74
2022/11/29 10:54:27;;;;;;;38.43;24.30;;;9.10;99.90;;;;;;5002757;28;20443;-74
2022/11/29 10:56:57;;;;;;;43.63;25.58;;;9.00;99.90;;;;;;4995522;28;20451;-74
2022/11/29 10:59:25;;;;;;;42.83;25.38;;;9.00;99.90;;;;;;4999871;28;20880;-75
2022/11/29 11:01:54;;;;;;;47.47;27.47;;;9.00;99.90;;;;;;4993703;28;20496;-74
2022/11/29 11:04:33;;;;;;;47.53;27.92;;;9.00;99.90;;;;;;4994712;28;20459;-75
2022/11/29 11:07:02;;;;;;;46.38;26.90;;;9.10;99.90;;;;;;5005178;28;20440;-74
2022/11/29 11:09:34;;;;;;;49.72;28.25;;;9.00;99.90;;;;;;5007979;28;20445;-74
2022/11/29 11:12:04;;;;;;;48.65;29.48;;;9.00;99.90;;;;;;4999518;28;20778;-77
2022/11/29 11:14:33;;;;;;;41.80;26.70;;;9.00;99.90;;;;;;5016406;28;20423;-75
2022/11/29 11:17:21;;;;;;;43.33;27.38;;;9.00;99.90;;;;;;4997590;28;20440;-75
2022/11/29 11:19:55;;;;;;;41.80;26.40;;;9.00;99.90;;;;;;5010437;28;20411;-76
2022/11/29 11:22:23;;;;;;;45.17;27.00;;;9.10;99.90;;;;;;4994591;28;20524;-76
2022/11/29 11:24:59;;;;;;;44.88;27.75;;;9.00;99.90;;;;;;4991491;28;20438;-78
2022/11/29 11:27:31;;;;;;;37.47;26.05;;;9.10;99.90;;;;;;4997370;28;20440;-76
2022/11/29 11:29:59;;;;;;;42.17;24.58;;;9.10;99.80;;;;;;4999552;28;20444;-75
2022/11/29 11:32:27;;;;;;;38.72;22.83;;;9.10;99.90;;;;;;4988609;28;20557;-76
2022/11/29 11:34:55;;;;;;;38.75;24.95;;;9.10;99.90;;;;;;4996400;28;20433;-76
2022/11/29 11:37:25;;;;;;;34.65;22.95;;;9.20;99.90;;;;;;4994080;28;20489;-77
2022/11/29 11:39:54;;;;;;;36.38;23.77;;;9.20;99.90;;;;;;4991259;28;20439;-76
2022/11/29 11:42:38;;;;;;;38.00;23.63;;;9.30;99.90;;;;;;4993714;28;20572;-77
2022/11/29 11:45:25;;;;;;;36.13;23.38;;;9.30;99.90;;;;;;5005580;28;20477;-76
2022/11/29 11:47:56;;;;;;;33.00;21.92;;;9.40;99.70;;;;;;5000817;28;20501;-76
2022/11/29 11:50:32;;;;;;;30.63;21.02;;;9.40;99.10;;;;;;5000850;28;20462;-77
2022/11/29 11:53:04;;;;;;;33.45;22.83;;;9.40;99.00;;;;;;4995710;28;20765;-76
2022/11/29 11:55:35;;;;;;;32.40;21.30;;;9.50;99.10;;;;;;4997160;28;20765;-76
2022/11/29 11:58:17;;;;;;;32.55;22.70;;;9.50;99.20;;;;;;5018122;22;20438;-68
2022/11/29 12:00:48;;;;;;;32.37;22.07;;;9.60;99.50;;;;;;5024118;28;20439;-70
2022/11/29 12:03:34;;;;;;;30.55;22.67;;;9.70;99.40;;;;;;5021674;28;20437;-72
2022/11/29 12:06:12;;;;;;;29.13;22.15;;;9.80;99.30;;;;;;5022741;28;20426;-69
2022/11/29 12:08:40;;;;;;;31.88;23.15;;;9.80;99.10;;;;;;5027412;28;20450;-70
2022/11/29 12:11:10;;;;;;;31.73;22.35;;;9.90;98.90;;;;;;5023122;28;20440;-69
2022/11/29 12:13:43;;;;;;;38.53;24.50;;;9.80;98.80;;;;;;5025718;28;20435;-69
2022/11/29 12:16:16;;;;;;;33.55;23.75;;;9.80;98.60;;;;;;5024496;28;20953;-69
2022/11/29 12:18:48;;;;;;;31.45;22.73;;;9.80;98.70;;;;;;5020727;28;20431;-69
2022/11/29 12:21:17;;;;;;;33.03;22.80;;;9.80;98.70;;;;;;5019397;28;20419;-71
2022/11/29 12:23:48;;;;;;;33.17;23.85;;;9.80;98.60;;;;;;5025244;28;20442;-69
2022/11/29 12:26:20;;;;;;;36.60;24.80;;;9.80;98.50;;;;;;5021967;28;20427;-69
2022/11/29 12:28:49;;;;;;;35.45;24.10;;;9.80;98.60;;;;;;5026214;28;20453;-69
2022/11/29 12:31:26;;;;;;;34.20;23.03;;;9.80;98.40;;;;;;5024728;28;20944;-68
2022/11/29 12:34:01;;;;;;;36.25;24.83;;;9.80;98.20;;;;;;5031020;28;20442;-68
2022/11/29 12:36:35;;;;;;;40.03;25.20;;;9.70;98.50;;;;;;5023731;28;20431;-67
2022/11/29 12:39:31;;;;;;;34.80;24.10;;;9.70;98.90;;;;;;5021915;28;20435;-68
2022/11/29 12:42:05;;;;;;;36.00;24.73;;;9.60;98.70;;;;;;5026850;28;20851;-67
2022/11/29 12:44:42;;;;;;;34.08;23.50;;;9.60;98.90;;;;;;5026491;28;20438;-68
2022/11/29 12:47:24;;;;;;;34.53;23.83;;;9.60;98.50;;;;;;5026583;28;20434;-69
2022/11/29 12:50:03;;;;;;;36.05;24.38;;;9.60;98.20;;;;;;5022555;28;20427;-66
2022/11/29 12:52:40;;;;;;;35.80;24.27;;;9.50;98.20;;;;;;5017905;28;20436;-69
2022/11/29 12:55:17;;;;;;;34.67;23.27;;;9.50;98.20;;;;;;5021681;28;20438;-69
2022/11/29 12:57:51;;;;;;;38.97;24.53;;;9.50;97.60;;;;;;5021429;28;20470;-68
2022/11/29 13:00:19;;;;;;;34.35;25.80;;;9.40;97.70;;;;;;5024333;28;20431;-68
2022/11/29 13:02:58;;;;;;;34.30;23.98;;;9.40;98.20;;;;;;5024996;28;20485;-68
2022/11/29 13:05:40;;;;;;;34.58;25.25;;;9.30;98.30;;;;;;5024466;28;20436;-67
2022/11/29 13:08:25;;;;;;;36.97;24.70;;;9.30;98.90;;;;;;5018797;28;20438;-68
2022/11/29 13:11:02;;;;;;;36.40;25.23;;;9.30;99.20;;;;;;5026816;28;20438;-68
2022/11/29 13:13:38;;;;;;;35.63;24.50;;;9.30;99.20;;;;;;5023428;28;20441;-68
2022/11/29 13:16:12;;;;;;;37.90;25.13;;;9.20;99.30;;;;;;5025348;28;20438;-67
2022/11/29 13:18:44;;;;;;;37.90;26.40;;;9.20;99.40;;;;;;5034492;28;20411;-68
2022/11/29 13:21:16;;;;;;;37.78;25.65;;;9.20;99.60;;;;;;5027665;28;20735;-66